sensor_id;sensor_type;location;lat;lon;timestamp;P1;durP1;ratioP1;P2;durP2;ratioP2
25980;SDS011;13772;52.996;9.124;2024-01-07T10:22:29;5.50;;;2.40;;
25980;SDS011;13772;52.996;9.124;2024-01-07T10:24:55;6.00;;;2.65;;
25980;SDS011;13772;52.996;9.124;2024-01-07T10:27:22;3.83;;;2.35;;
25980;SDS011;13772;52.996;9.124;2024-01-07T10:29:47;5.15;;;2.58;;
25980;SDS011;13772;52.996;9.124;2024-01-07T10:32:17;6.18;;;2.50;;
25980;SDS011;13772;52.996;9.124;2024-01-07T10:34:44;6.80;;;2.67;;
25980;SDS011;13772;52.996;9.124;2024-01-07T10:37:11;6.78;;;2.75;;
25980;SDS011;13772;52.996;9.124;2024-01-07T10:39:37;6.97;;;3.35;;
25980;SDS011;13772;52.996;9.124;2024-01-07T10:42:03;5.78;;;3.08;;
25980;SDS011;13772;52.996;9.124;2024-01-07T10:44:32;5.55;;;2.88;;
25980;SDS011;13772;52.996;9.124;2024-01-07T10:46:57;7.43;;;3.40;;
25980;SDS011;13772;52.996;9.124;2024-01-07T10:49:24;7.00;;;3.80;;
25980;SDS011;13772;52.996;9.124;2024-01-07T12:20:01;8.13;;;2.95;;
25980;SDS011;13772;52.996;9.124;2024-01-07T12:22:29;5.88;;;2.90;;
25980;SDS011;13772;52.996;9.124;2024-01-07T12:25:07;5.97;;;2.75;;
25980;SDS011;13772;52.996;9.124;2024-01-07T12:27:32;6.18;;;2.63;;
25980;SDS011;13772;52.996;9.124;2024-01-07T12:29:59;5.97;;;2.80;;
25980;SDS011;13772;52.996;9.124;2024-01-07T12:32:27;6.47;;;2.80;;
25980;SDS011;13772;52.996;9.124;2024-01-07T12:34:52;7.78;;;3.10;;
25980;SDS011;13772;52.996;9.124;2024-01-07T12:37:18;6.78;;;2.90;;
25980;SDS011;13772;52.996;9.124;2024-01-07T12:39:43;4.75;;;2.80;;
25980;SDS011;13772;52.996;9.124;2024-01-07T12:42:08;5.25;;;2.85;;
25980;SDS011;13772;52.996;9.124;2024-01-07T12:44:35;6.72;;;3.28;;
25980;SDS011;13772;52.996;9.124;2024-01-07T12:47:01;5.97;;;3.20;;
25980;SDS011;13772;52.996;9.124;2024-01-07T12:49:27;8.25;;;3.00;;
25980;SDS011;13772;52.996;9.124;2024-01-07T12:51:52;5.45;;;3.13;;
25980;SDS011;13772;52.996;9.124;2024-01-07T12:54:17;6.53;;;3.50;;
25980;SDS011;13772;52.996;9.124;2024-01-07T12:56:44;8.13;;;3.03;;
25980;SDS011;13772;52.996;9.124;2024-01-07T12:59:09;6.13;;;3.15;;
25980;SDS011;13772;52.996;9.124;2024-01-07T13:01:34;7.28;;;3.25;;
25980;SDS011;13772;52.996;9.124;2024-01-07T13:04:01;4.27;;;2.90;;
25980;SDS011;13772;52.996;9.124;2024-01-07T13:06:27;4.88;;;2.75;;
25980;SDS011;13772;52.996;9.124;2024-01-07T13:08:52;6.30;;;2.83;;
25980;SDS011;13772;52.996;9.124;2024-01-07T13:11:17;4.78;;;2.70;;
25980;SDS011;13772;52.996;9.124;2024-01-07T13:13:43;6.33;;;3.33;;
25980;SDS011;13772;52.996;9.124;2024-01-07T13:16:08;5.93;;;3.45;;
25980;SDS011;13772;52.996;9.124;2024-01-07T13:18:33;5.93;;;3.50;;
25980;SDS011;13772;52.996;9.124;2024-01-07T13:20:58;5.95;;;3.40;;
25980;SDS011;13772;52.996;9.124;2024-01-07T13:23:23;6.68;;;3.70;;
25980;SDS011;13772;52.996;9.124;2024-01-07T13:25:48;8.88;;;3.45;;
25980;SDS011;13772;52.996;9.124;2024-01-07T13:28:14;5.67;;;3.33;;
25980;SDS011;13772;52.996;9.124;2024-01-07T13:30:39;6.00;;;3.33;;
25980;SDS011;13772;52.996;9.124;2024-01-07T13:33:05;6.40;;;3.33;;
25980;SDS011;13772;52.996;9.124;2024-01-07T13:35:30;7.43;;;4.33;;
25980;SDS011;13772;52.996;9.124;2024-01-07T13:37:55;7.07;;;3.70;;
25980;SDS011;13772;52.996;9.124;2024-01-07T13:40:21;8.13;;;3.50;;
25980;SDS011;13772;52.996;9.124;2024-01-07T13:42:46;5.93;;;3.67;;
25980;SDS011;13772;52.996;9.124;2024-01-07T13:47:41;6.83;;;3.13;;
25980;SDS011;13772;52.996;9.124;2024-01-07T13:50:07;5.07;;;2.63;;
25980;SDS011;13772;52.996;9.124;2024-01-07T13:52:32;6.23;;;2.97;;
25980;SDS011;13772;52.996;9.124;2024-01-07T13:54:57;7.37;;;2.97;;
25980;SDS011;13772;52.996;9.124;2024-01-07T13:57:22;7.57;;;2.73;;
25980;SDS011;13772;52.996;9.124;2024-01-07T13:59:48;7.00;;;3.30;;
25980;SDS011;13772;52.996;9.124;2024-01-07T14:02:13;10.10;;;3.07;;
25980;SDS011;13772;52.996;9.124;2024-01-07T14:04:38;4.00;;;2.70;;
25980;SDS011;13772;52.996;9.124;2024-01-07T14:07:03;5.53;;;3.20;;
25980;SDS011;13772;52.996;9.124;2024-01-07T14:09:28;5.93;;;3.67;;
25980;SDS011;13772;52.996;9.124;2024-01-07T14:11:56;5.00;;;3.17;;
25980;SDS011;13772;52.996;9.124;2024-01-07T14:14:21;8.27;;;3.73;;
25980;SDS011;13772;52.996;9.124;2024-01-07T14:16:47;6.47;;;3.93;;
25980;SDS011;13772;52.996;9.124;2024-01-07T14:19:12;4.53;;;2.60;;
25980;SDS011;13772;52.996;9.124;2024-01-07T14:21:39;6.53;;;3.43;;
25980;SDS011;13772;52.996;9.124;2024-01-07T14:24:04;9.80;;;3.77;;
25980;SDS011;13772;52.996;9.124;2024-01-07T14:26:30;6.63;;;3.33;;
25980;SDS011;13772;52.996;9.124;2024-01-07T14:28:55;10.97;;;4.00;;
25980;SDS011;13772;52.996;9.124;2024-01-07T14:31:20;8.60;;;3.90;;
25980;SDS011;13772;52.996;9.124;2024-01-07T14:33:45;6.80;;;4.17;;
25980;SDS011;13772;52.996;9.124;2024-01-07T14:36:10;5.87;;;3.40;;
25980;SDS011;13772;52.996;9.124;2024-01-07T14:38:44;6.73;;;3.37;;
25980;SDS011;13772;52.996;9.124;2024-01-07T14:41:11;7.07;;;4.00;;
25980;SDS011;13772;52.996;9.124;2024-01-07T14:43:36;5.77;;;3.57;;
25980;SDS011;13772;52.996;9.124;2024-01-07T14:46:02;7.90;;;4.40;;
25980;SDS011;13772;52.996;9.124;2024-01-07T14:48:27;7.70;;;3.70;;
25980;SDS011;13772;52.996;9.124;2024-01-07T14:50:53;8.03;;;4.00;;
25980;SDS011;13772;52.996;9.124;2024-01-07T14:53:18;6.57;;;4.07;;
25980;SDS011;13772;52.996;9.124;2024-01-07T14:55:43;7.93;;;4.70;;
25980;SDS011;13772;52.996;9.124;2024-01-07T14:58:08;8.27;;;4.70;;
25980;SDS011;13772;52.996;9.124;2024-01-07T15:00:33;5.20;;;3.53;;
25980;SDS011;13772;52.996;9.124;2024-01-07T15:02:59;10.03;;;4.73;;
25980;SDS011;13772;52.996;9.124;2024-01-07T15:05:24;7.73;;;3.90;;
25980;SDS011;13772;52.996;9.124;2024-01-07T15:07:50;7.20;;;4.60;;
25980;SDS011;13772;52.996;9.124;2024-01-07T15:10:15;7.43;;;4.50;;
25980;SDS011;13772;52.996;9.124;2024-01-07T15:12:42;7.50;;;4.20;;
25980;SDS011;13772;52.996;9.124;2024-01-07T15:15:07;9.67;;;4.90;;
25980;SDS011;13772;52.996;9.124;2024-01-07T15:17:32;9.83;;;4.90;;
25980;SDS011;13772;52.996;9.124;2024-01-07T15:19:57;8.53;;;4.40;;
25980;SDS011;13772;52.996;9.124;2024-01-07T15:22:23;9.37;;;4.70;;
25980;SDS011;13772;52.996;9.124;2024-01-07T15:24:48;8.57;;;4.80;;
25980;SDS011;13772;52.996;9.124;2024-01-07T15:27:13;8.57;;;5.17;;
25980;SDS011;13772;52.996;9.124;2024-01-07T15:29:38;7.30;;;4.80;;
25980;SDS011;13772;52.996;9.124;2024-01-07T15:32:03;8.60;;;4.80;;
25980;SDS011;13772;52.996;9.124;2024-01-07T15:34:29;11.53;;;5.67;;
25980;SDS011;13772;52.996;9.124;2024-01-07T15:36:54;7.53;;;4.37;;
25980;SDS011;13772;52.996;9.124;2024-01-07T15:39:19;7.37;;;4.30;;
25980;SDS011;13772;52.996;9.124;2024-01-07T15:41:44;9.27;;;4.70;;
25980;SDS011;13772;52.996;9.124;2024-01-07T15:44:11;7.20;;;4.20;;
25980;SDS011;13772;52.996;9.124;2024-01-07T15:46:36;9.27;;;5.10;;
25980;SDS011;13772;52.996;9.124;2024-01-07T15:49:01;8.20;;;4.03;;
25980;SDS011;13772;52.996;9.124;2024-01-07T15:51:26;6.40;;;4.00;;
25980;SDS011;13772;52.996;9.124;2024-01-07T15:53:52;6.33;;;4.10;;
25980;SDS011;13772;52.996;9.124;2024-01-07T15:56:17;7.60;;;4.20;;
25980;SDS011;13772;52.996;9.124;2024-01-07T15:58:44;7.73;;;4.50;;
25980;SDS011;13772;52.996;9.124;2024-01-07T16:01:09;8.07;;;4.23;;
25980;SDS011;13772;52.996;9.124;2024-01-07T16:03:35;10.03;;;5.87;;
25980;SDS011;13772;52.996;9.124;2024-01-07T16:06:00;10.97;;;5.53;;
25980;SDS011;13772;52.996;9.124;2024-01-07T16:08:25;12.13;;;5.90;;
25980;SDS011;13772;52.996;9.124;2024-01-07T16:10:53;8.77;;;5.07;;
25980;SDS011;13772;52.996;9.124;2024-01-07T16:13:19;9.07;;;5.17;;
25980;SDS011;13772;52.996;9.124;2024-01-07T16:15:44;7.97;;;4.73;;
25980;SDS011;13772;52.996;9.124;2024-01-07T16:18:09;13.03;;;6.50;;
25980;SDS011;13772;52.996;9.124;2024-01-07T16:20:34;10.07;;;5.70;;
25980;SDS011;13772;52.996;9.124;2024-01-07T16:22:59;8.70;;;4.77;;
25980;SDS011;13772;52.996;9.124;2024-01-07T16:25:26;7.43;;;4.47;;
25980;SDS011;13772;52.996;9.124;2024-01-07T16:27:51;10.50;;;4.23;;
25980;SDS011;13772;52.996;9.124;2024-01-07T16:30:16;9.70;;;5.10;;
25980;SDS011;13772;52.996;9.124;2024-01-07T16:32:41;9.33;;;5.40;;
25980;SDS011;13772;52.996;9.124;2024-01-07T16:35:09;15.20;;;6.30;;
25980;SDS011;13772;52.996;9.124;2024-01-07T16:37:34;14.63;;;6.63;;
25980;SDS011;13772;52.996;9.124;2024-01-07T16:39:59;7.20;;;4.03;;
25980;SDS011;13772;52.996;9.124;2024-01-07T16:42:25;7.67;;;4.43;;
25980;SDS011;13772;52.996;9.124;2024-01-07T16:44:50;8.43;;;4.77;;
25980;SDS011;13772;52.996;9.124;2024-01-07T16:47:15;8.27;;;5.13;;
25980;SDS011;13772;52.996;9.124;2024-01-07T16:49:40;10.43;;;5.70;;
25980;SDS011;13772;52.996;9.124;2024-01-07T16:52:06;7.10;;;4.33;;
25980;SDS011;13772;52.996;9.124;2024-01-07T16:54:31;10.27;;;5.47;;
25980;SDS011;13772;52.996;9.124;2024-01-07T16:56:57;9.47;;;4.87;;
25980;SDS011;13772;52.996;9.124;2024-01-07T16:59:23;10.17;;;5.50;;
25980;SDS011;13772;52.996;9.124;2024-01-07T17:01:49;11.27;;;5.73;;
25980;SDS011;13772;52.996;9.124;2024-01-07T17:04:14;10.17;;;4.90;;
25980;SDS011;13772;52.996;9.124;2024-01-07T17:06:40;10.57;;;5.37;;
25980;SDS011;13772;52.996;9.124;2024-01-07T17:09:05;13.27;;;6.43;;
25980;SDS011;13772;52.996;9.124;2024-01-07T17:11:30;10.90;;;6.07;;
25980;SDS011;13772;52.996;9.124;2024-01-07T17:13:55;10.93;;;5.70;;
25980;SDS011;13772;52.996;9.124;2024-01-07T17:16:21;9.67;;;5.47;;
25980;SDS011;13772;52.996;9.124;2024-01-07T17:18:49;11.60;;;6.50;;
25980;SDS011;13772;52.996;9.124;2024-01-07T17:21:14;10.63;;;5.77;;
25980;SDS011;13772;52.996;9.124;2024-01-07T17:23:40;12.53;;;6.60;;
25980;SDS011;13772;52.996;9.124;2024-01-07T17:26:05;22.33;;;10.47;;
25980;SDS011;13772;52.996;9.124;2024-01-07T17:28:30;10.37;;;5.47;;
25980;SDS011;13772;52.996;9.124;2024-01-07T17:30:55;8.87;;;5.00;;
25980;SDS011;13772;52.996;9.124;2024-01-07T17:33:21;8.97;;;4.80;;
25980;SDS011;13772;52.996;9.124;2024-01-07T17:35:47;13.87;;;7.13;;
25980;SDS011;13772;52.996;9.124;2024-01-07T17:38:12;11.37;;;6.10;;
25980;SDS011;13772;52.996;9.124;2024-01-07T17:40:43;10.10;;;5.50;;
25980;SDS011;13772;52.996;9.124;2024-01-07T17:43:08;8.33;;;4.53;;
25980;SDS011;13772;52.996;9.124;2024-01-07T17:45:33;5.90;;;3.90;;
25980;SDS011;13772;52.996;9.124;2024-01-07T17:47:59;6.43;;;4.57;;
25980;SDS011;13772;52.996;9.124;2024-01-07T17:50:24;5.70;;;4.20;;
25980;SDS011;13772;52.996;9.124;2024-01-07T17:52:50;7.17;;;4.63;;
25980;SDS011;13772;52.996;9.124;2024-01-07T17:55:15;7.70;;;4.90;;
25980;SDS011;13772;52.996;9.124;2024-01-07T17:57:42;8.33;;;5.07;;
25980;SDS011;13772;52.996;9.124;2024-01-07T18:00:08;8.13;;;4.83;;
25980;SDS011;13772;52.996;9.124;2024-01-07T18:02:34;6.87;;;4.93;;
25980;SDS011;13772;52.996;9.124;2024-01-07T18:05:00;6.30;;;4.43;;
25980;SDS011;13772;52.996;9.124;2024-01-07T18:07:25;5.93;;;4.67;;
25980;SDS011;13772;52.996;9.124;2024-01-07T18:09:50;8.17;;;5.70;;
25980;SDS011;13772;52.996;9.124;2024-01-07T18:12:16;6.87;;;4.63;;
25980;SDS011;13772;52.996;9.124;2024-01-07T18:14:42;5.77;;;4.23;;
25980;SDS011;13772;52.996;9.124;2024-01-07T18:17:07;7.50;;;4.47;;
25980;SDS011;13772;52.996;9.124;2024-01-07T18:19:33;6.57;;;4.70;;
25980;SDS011;13772;52.996;9.124;2024-01-07T18:21:58;8.73;;;4.70;;
25980;SDS011;13772;52.996;9.124;2024-01-07T18:24:24;8.27;;;5.73;;
25980;SDS011;13772;52.996;9.124;2024-01-07T18:26:49;10.63;;;6.07;;
25980;SDS011;13772;52.996;9.124;2024-01-07T18:29:22;11.70;;;6.30;;
25980;SDS011;13772;52.996;9.124;2024-01-07T18:31:47;15.60;;;7.97;;
25980;SDS011;13772;52.996;9.124;2024-01-07T18:34:12;13.90;;;7.40;;
25980;SDS011;13772;52.996;9.124;2024-01-07T18:36:38;9.87;;;5.13;;
25980;SDS011;13772;52.996;9.124;2024-01-07T18:39:03;9.70;;;5.67;;
25980;SDS011;13772;52.996;9.124;2024-01-07T18:41:31;7.37;;;5.40;;
25980;SDS011;13772;52.996;9.124;2024-01-07T18:43:56;6.47;;;4.67;;
25980;SDS011;13772;52.996;9.124;2024-01-07T18:46:22;6.80;;;4.30;;
25980;SDS011;13772;52.996;9.124;2024-01-07T18:48:47;7.93;;;5.27;;
25980;SDS011;13772;52.996;9.124;2024-01-07T18:51:12;8.53;;;5.07;;
25980;SDS011;13772;52.996;9.124;2024-01-07T18:53:37;7.93;;;5.10;;
25980;SDS011;13772;52.996;9.124;2024-01-07T18:56:06;7.60;;;5.03;;
25980;SDS011;13772;52.996;9.124;2024-01-07T18:58:32;6.43;;;4.10;;
25980;SDS011;13772;52.996;9.124;2024-01-07T19:00:59;6.87;;;4.10;;
25980;SDS011;13772;52.996;9.124;2024-01-07T19:03:24;7.57;;;4.20;;
25980;SDS011;13772;52.996;9.124;2024-01-07T19:05:50;7.43;;;5.10;;
25980;SDS011;13772;52.996;9.124;2024-01-07T19:08:15;5.43;;;4.07;;
25980;SDS011;13772;52.996;9.124;2024-01-07T19:10:41;6.63;;;4.17;;
25980;SDS011;13772;52.996;9.124;2024-01-07T19:13:08;6.07;;;4.07;;
25980;SDS011;13772;52.996;9.124;2024-01-07T19:15:35;7.20;;;4.37;;
25980;SDS011;13772;52.996;9.124;2024-01-07T19:18:01;8.20;;;4.57;;
25980;SDS011;13772;52.996;9.124;2024-01-07T19:20:26;6.73;;;4.47;;
25980;SDS011;13772;52.996;9.124;2024-01-07T19:22:55;6.67;;;4.13;;
25980;SDS011;13772;52.996;9.124;2024-01-07T19:25:20;6.87;;;4.53;;
25980;SDS011;13772;52.996;9.124;2024-01-07T19:27:46;6.17;;;4.47;;
25980;SDS011;13772;52.996;9.124;2024-01-07T19:30:11;6.07;;;3.90;;
25980;SDS011;13772;52.996;9.124;2024-01-07T19:32:36;5.60;;;4.10;;
25980;SDS011;13772;52.996;9.124;2024-01-07T19:35:03;6.07;;;4.57;;
25980;SDS011;13772;52.996;9.124;2024-01-07T19:37:28;5.43;;;4.10;;
25980;SDS011;13772;52.996;9.124;2024-01-07T19:39:53;8.53;;;5.70;;
25980;SDS011;13772;52.996;9.124;2024-01-07T19:42:22;11.40;;;5.80;;
25980;SDS011;13772;52.996;9.124;2024-01-07T19:44:47;8.00;;;5.47;;
25980;SDS011;13772;52.996;9.124;2024-01-07T19:47:12;6.83;;;4.87;;
25980;SDS011;13772;52.996;9.124;2024-01-07T19:49:37;9.57;;;5.30;;
25980;SDS011;13772;52.996;9.124;2024-01-07T19:52:03;11.97;;;8.10;;
25980;SDS011;13772;52.996;9.124;2024-01-07T19:54:28;14.17;;;9.60;;
25980;SDS011;13772;52.996;9.124;2024-01-07T19:56:54;9.80;;;6.40;;
25980;SDS011;13772;52.996;9.124;2024-01-07T19:59:19;10.00;;;5.60;;
25980;SDS011;13772;52.996;9.124;2024-01-07T20:01:46;7.40;;;5.43;;
25980;SDS011;13772;52.996;9.124;2024-01-07T20:04:11;8.03;;;5.50;;
25980;SDS011;13772;52.996;9.124;2024-01-07T20:06:37;7.63;;;4.77;;
25980;SDS011;13772;52.996;9.124;2024-01-07T20:09:03;8.93;;;5.40;;
25980;SDS011;13772;52.996;9.124;2024-01-07T20:11:28;6.90;;;4.57;;
25980;SDS011;13772;52.996;9.124;2024-01-07T20:13:53;7.00;;;5.20;;
25980;SDS011;13772;52.996;9.124;2024-01-07T20:16:18;9.23;;;4.93;;
25980;SDS011;13772;52.996;9.124;2024-01-07T20:18:44;8.23;;;5.80;;
25980;SDS011;13772;52.996;9.124;2024-01-07T20:21:28;8.47;;;5.70;;
25980;SDS011;13772;52.996;9.124;2024-01-07T20:23:54;11.80;;;6.87;;
25980;SDS011;13772;52.996;9.124;2024-01-07T20:26:20;9.17;;;5.83;;
25980;SDS011;13772;52.996;9.124;2024-01-07T20:28:45;10.47;;;5.90;;
25980;SDS011;13772;52.996;9.124;2024-01-07T20:31:11;8.80;;;5.37;;
25980;SDS011;13772;52.996;9.124;2024-01-07T20:33:36;8.60;;;5.57;;
25980;SDS011;13772;52.996;9.124;2024-01-07T20:36:02;9.37;;;5.50;;
25980;SDS011;13772;52.996;9.124;2024-01-07T20:38:27;9.97;;;6.13;;
25980;SDS011;13772;52.996;9.124;2024-01-07T20:40:52;9.00;;;4.90;;
25980;SDS011;13772;52.996;9.124;2024-01-07T20:43:17;12.30;;;6.10;;
25980;SDS011;13772;52.996;9.124;2024-01-07T20:45:43;9.73;;;6.00;;
25980;SDS011;13772;52.996;9.124;2024-01-07T20:48:08;11.10;;;7.20;;
25980;SDS011;13772;52.996;9.124;2024-01-07T20:50:34;13.13;;;7.17;;
25980;SDS011;13772;52.996;9.124;2024-01-07T20:52:59;9.30;;;5.37;;
25980;SDS011;13772;52.996;9.124;2024-01-07T20:55:24;6.80;;;4.50;;
25980;SDS011;13772;52.996;9.124;2024-01-07T20:57:50;7.20;;;4.87;;
25980;SDS011;13772;52.996;9.124;2024-01-07T21:00:16;12.30;;;5.13;;
25980;SDS011;13772;52.996;9.124;2024-01-07T21:02:41;9.40;;;5.23;;
25980;SDS011;13772;52.996;9.124;2024-01-07T21:05:07;10.43;;;5.30;;
25980;SDS011;13772;52.996;9.124;2024-01-07T21:07:32;9.17;;;5.10;;
25980;SDS011;13772;52.996;9.124;2024-01-07T21:09:58;8.80;;;5.70;;
25980;SDS011;13772;52.996;9.124;2024-01-07T21:12:23;11.17;;;6.57;;
25980;SDS011;13772;52.996;9.124;2024-01-07T21:14:48;10.37;;;6.27;;
25980;SDS011;13772;52.996;9.124;2024-01-07T21:17:14;14.37;;;8.03;;
25980;SDS011;13772;52.996;9.124;2024-01-07T21:19:39;13.00;;;6.10;;
25980;SDS011;13772;52.996;9.124;2024-01-07T21:22:04;11.80;;;7.00;;
25980;SDS011;13772;52.996;9.124;2024-01-07T21:24:29;7.90;;;5.20;;
25980;SDS011;13772;52.996;9.124;2024-01-07T21:26:54;10.33;;;5.70;;
25980;SDS011;13772;52.996;9.124;2024-01-07T21:29:20;13.97;;;7.07;;
25980;SDS011;13772;52.996;9.124;2024-01-07T21:31:45;8.60;;;5.47;;
25980;SDS011;13772;52.996;9.124;2024-01-07T21:34:10;9.17;;;5.60;;
25980;SDS011;13772;52.996;9.124;2024-01-07T21:36:39;8.53;;;6.27;;
25980;SDS011;13772;52.996;9.124;2024-01-07T21:39:04;11.00;;;5.70;;
25980;SDS011;13772;52.996;9.124;2024-01-07T21:41:30;8.90;;;5.73;;
25980;SDS011;13772;52.996;9.124;2024-01-07T21:43:55;7.60;;;5.37;;
25980;SDS011;13772;52.996;9.124;2024-01-07T21:46:20;9.07;;;5.50;;
25980;SDS011;13772;52.996;9.124;2024-01-07T21:48:46;11.33;;;6.20;;
25980;SDS011;13772;52.996;9.124;2024-01-07T21:51:13;9.27;;;5.23;;
25980;SDS011;13772;52.996;9.124;2024-01-07T21:53:38;10.70;;;5.90;;
25980;SDS011;13772;52.996;9.124;2024-01-07T21:56:03;11.43;;;5.60;;
25980;SDS011;13772;52.996;9.124;2024-01-07T21:58:29;8.23;;;5.57;;
25980;SDS011;13772;52.996;9.124;2024-01-07T22:00:56;10.83;;;6.37;;
25980;SDS011;13772;52.996;9.124;2024-01-07T22:03:21;10.33;;;4.80;;
25980;SDS011;13772;52.996;9.124;2024-01-07T22:05:46;10.30;;;5.63;;
25980;SDS011;13772;52.996;9.124;2024-01-07T22:08:11;8.70;;;5.40;;
25980;SDS011;13772;52.996;9.124;2024-01-07T22:10:37;10.90;;;5.80;;
25980;SDS011;13772;52.996;9.124;2024-01-07T22:13:02;9.27;;;5.33;;
25980;SDS011;13772;52.996;9.124;2024-01-07T22:15:27;8.53;;;5.57;;
25980;SDS011;13772;52.996;9.124;2024-01-07T22:17:53;9.17;;;5.30;;
25980;SDS011;13772;52.996;9.124;2024-01-07T22:20:19;10.63;;;6.23;;
25980;SDS011;13772;52.996;9.124;2024-01-07T22:22:44;11.27;;;5.90;;
25980;SDS011;13772;52.996;9.124;2024-01-07T22:25:09;10.23;;;5.60;;
25980;SDS011;13772;52.996;9.124;2024-01-07T22:27:35;9.90;;;5.97;;
25980;SDS011;13772;52.996;9.124;2024-01-07T22:30:01;10.17;;;6.03;;
25980;SDS011;13772;52.996;9.124;2024-01-07T22:32:26;9.60;;;5.70;;
25980;SDS011;13772;52.996;9.124;2024-01-07T22:34:51;8.63;;;5.70;;
25980;SDS011;13772;52.996;9.124;2024-01-07T22:37:16;8.47;;;5.43;;
25980;SDS011;13772;52.996;9.124;2024-01-07T22:39:42;7.80;;;5.33;;
25980;SDS011;13772;52.996;9.124;2024-01-07T22:42:07;7.70;;;5.60;;
25980;SDS011;13772;52.996;9.124;2024-01-07T22:44:33;9.27;;;5.77;;
25980;SDS011;13772;52.996;9.124;2024-01-07T22:46:59;10.23;;;6.27;;
25980;SDS011;13772;52.996;9.124;2024-01-07T22:49:24;11.27;;;6.20;;
25980;SDS011;13772;52.996;9.124;2024-01-07T22:51:49;11.73;;;6.33;;
25980;SDS011;13772;52.996;9.124;2024-01-07T22:54:14;11.50;;;6.27;;
25980;SDS011;13772;52.996;9.124;2024-01-07T22:56:40;9.40;;;5.77;;
25980;SDS011;13772;52.996;9.124;2024-01-07T22:59:07;10.93;;;5.87;;
